createdAt,value
2018-05-13T00:00:55.742Z,6.30
2018-05-13T00:03:29.312Z,6.87
2018-05-13T00:06:02.855Z,5.97
2018-05-13T00:08:36.437Z,5.85
2018-05-13T00:11:10.005Z,6.00
2018-05-13T00:13:43.500Z,6.00
2018-05-13T00:16:17.047Z,5.95
2018-05-13T00:18:50.601Z,6.70
2018-05-13T00:21:25.227Z,7.12
2018-05-13T00:23:59.566Z,6.40
2018-05-13T00:26:33.346Z,6.62
2018-05-13T00:29:06.957Z,6.18
2018-05-13T00:31:40.505Z,6.75
2018-05-13T00:34:14.063Z,8.05
2018-05-13T00:36:47.661Z,7.28
2018-05-13T00:39:21.358Z,8.07
2018-05-13T00:41:55.692Z,7.18
2018-05-13T00:44:29.310Z,7.30
2018-05-13T00:47:02.880Z,6.28
2018-05-13T00:49:36.479Z,6.80
2018-05-13T00:52:10.822Z,7.28
2018-05-13T00:54:55.530Z,6.75
2018-05-13T00:57:29.261Z,6.10
2018-05-13T01:00:02.998Z,7.05
2018-05-13T01:02:36.589Z,7.22
2018-05-13T01:05:10.170Z,7.07
2018-05-13T01:07:43.715Z,7.00
2018-05-13T01:10:18.004Z,6.80
2018-05-13T01:12:51.809Z,7.30
2018-05-13T01:15:25.487Z,7.20
2018-05-13T01:17:59.048Z,6.90
2018-05-13T01:20:32.646Z,7.90
2018-05-13T01:23:06.213Z,6.80
2018-05-13T01:25:39.829Z,6.57
2018-05-13T01:28:13.389Z,6.75
2018-05-13T01:30:46.963Z,7.22
2018-05-13T01:33:20.435Z,8.02
2018-05-13T01:35:54.006Z,8.43
2018-05-13T01:38:27.601Z,8.02
2018-05-13T01:41:01.143Z,7.55
2018-05-13T01:43:34.735Z,6.72
2018-05-13T01:46:08.639Z,8.18
2018-05-13T01:48:42.244Z,6.93
2018-05-13T01:51:15.821Z,6.70
2018-05-13T01:53:50.136Z,6.85
2018-05-13T01:56:23.707Z,6.35
2018-05-13T01:58:57.326Z,7.12
2018-05-13T02:01:30.896Z,6.15
2018-05-13T02:04:04.581Z,6.75
2018-05-13T02:06:38.121Z,7.05
2018-05-13T02:09:11.712Z,6.12
2018-05-13T02:11:46.118Z,6.82
2018-05-13T02:14:19.858Z,7.62
2018-05-13T02:16:54.109Z,6.87
2018-05-13T02:19:27.793Z,7.37
2018-05-13T02:22:01.366Z,7.10
2018-05-13T02:24:34.975Z,7.10
2018-05-13T02:27:08.550Z,6.60
2018-05-13T02:29:42.089Z,6.75
2018-05-13T02:32:15.888Z,7.30
2018-05-13T02:34:49.616Z,8.23
2018-05-13T02:37:23.209Z,7.47
2018-05-13T02:39:56.941Z,9.77
2018-05-13T02:42:30.507Z,10.38
2018-05-13T02:45:04.092Z,7.40
2018-05-13T02:47:37.681Z,6.72
2018-05-13T02:50:11.297Z,7.47
2018-05-13T02:52:45.630Z,7.80
2018-05-13T02:55:19.378Z,6.62
2018-05-13T02:57:52.917Z,6.80
2018-05-13T03:00:27.239Z,7.28
2018-05-13T03:03:01.555Z,7.50
2018-05-13T03:05:35.147Z,6.60
2018-05-13T03:08:08.720Z,7.68
2018-05-13T03:10:42.247Z,8.07
2018-05-13T03:13:16.730Z,9.50
2018-05-13T03:15:50.272Z,7.50
2018-05-13T03:18:23.852Z,7.50
2018-05-13T03:20:57.469Z,6.32
2018-05-13T03:23:31.072Z,6.62
2018-05-13T03:26:04.563Z,6.82
2018-05-13T03:28:38.142Z,7.00
2018-05-13T03:31:11.796Z,6.55
2018-05-13T03:33:45.332Z,6.47
2018-05-13T03:36:19.715Z,6.85
2018-05-13T03:38:53.394Z,6.10
2018-05-13T03:41:27.012Z,7.35
2018-05-13T03:44:00.612Z,8.90
2018-05-13T03:46:34.172Z,8.20
2018-05-13T03:49:07.788Z,6.60
2018-05-13T03:51:41.300Z,7.20
2018-05-13T03:54:15.778Z,7.35
2018-05-13T03:56:49.565Z,7.57
2018-05-13T03:59:23.090Z,7.60
2018-05-13T04:01:56.659Z,6.50
2018-05-13T04:04:31.018Z,7.28
2018-05-13T04:07:04.719Z,7.18
2018-05-13T04:09:50.201Z,6.60
2018-05-13T04:12:36.513Z,6.87
2018-05-13T04:15:22.707Z,6.40
2018-05-13T04:17:56.345Z,6.18
2018-05-13T04:20:29.943Z,6.53
2018-05-13T04:23:03.535Z,5.97
2018-05-13T04:25:37.128Z,6.97
2018-05-13T04:28:10.741Z,6.07
2018-05-13T04:30:44.310Z,6.30
2018-05-13T04:33:18.747Z,7.15
2018-05-13T04:35:52.339Z,7.10
2018-05-13T04:38:25.931Z,7.60
2018-05-13T04:40:59.520Z,7.30
2018-05-13T04:43:33.151Z,8.10
2018-05-13T04:46:06.727Z,7.68
2018-05-13T04:48:40.260Z,8.10
2018-05-13T04:51:13.920Z,7.00
2018-05-13T04:53:48.389Z,7.07
2018-05-13T04:56:22.111Z,6.80
2018-05-13T04:58:55.683Z,7.22
2018-05-13T05:01:29.267Z,7.00
2018-05-13T05:04:02.814Z,7.70
2018-05-13T05:06:37.093Z,7.40
2018-05-13T05:09:10.808Z,7.68
2018-05-13T05:11:44.392Z,8.30
2018-05-13T05:14:17.893Z,7.30
2018-05-13T05:16:51.462Z,7.40
2018-05-13T05:19:25.044Z,7.20
2018-05-13T05:21:58.584Z,8.25
2018-05-13T05:24:32.164Z,6.97
2018-05-13T05:27:06.513Z,6.10
2018-05-13T05:29:40.042Z,6.15
2018-05-13T05:32:13.595Z,6.72
2018-05-13T05:34:47.936Z,6.90
2018-05-13T05:37:21.619Z,6.25
2018-05-13T05:39:55.160Z,6.18
2018-05-13T05:42:28.756Z,6.53
2018-05-13T05:45:02.300Z,6.80
2018-05-13T05:47:35.933Z,7.20
2018-05-13T05:50:09.459Z,7.60
2018-05-13T05:52:43.751Z,6.10
2018-05-13T05:55:17.444Z,5.78
2018-05-13T05:57:50.942Z,6.20
2018-05-13T06:00:24.535Z,5.60
2018-05-13T06:02:58.066Z,6.18
2018-05-13T06:05:31.642Z,6.15
2018-05-13T06:08:05.282Z,6.20
2018-05-13T06:10:38.847Z,6.40
2018-05-13T06:13:13.178Z,5.00
2018-05-13T06:15:46.889Z,5.03
2018-05-13T06:18:20.385Z,5.50
2018-05-13T06:20:53.997Z,5.62
2018-05-13T06:23:27.552Z,5.32
2018-05-13T06:26:01.897Z,5.03
2018-05-13T06:28:35.422Z,5.87
2018-05-13T06:31:10.008Z,5.18
2018-05-13T06:33:43.719Z,4.70
2018-05-13T06:36:17.317Z,5.72
2018-05-13T06:38:50.920Z,5.80
2018-05-13T06:41:24.514Z,5.03
2018-05-13T06:43:58.057Z,4.37
2018-05-13T06:46:31.840Z,5.68
2018-05-13T06:49:05.449Z,5.93
2018-05-13T06:51:39.726Z,4.70
2018-05-13T06:54:13.335Z,5.25
2018-05-13T06:56:46.930Z,4.97
2018-05-13T06:59:20.475Z,4.30
2018-05-13T07:01:54.022Z,4.00
2018-05-13T07:04:28.376Z,3.90
2018-05-13T07:07:01.974Z,4.40
2018-05-13T07:09:35.534Z,4.12
2018-05-13T07:12:09.080Z,3.80
2018-05-13T07:14:42.668Z,3.50
2018-05-13T07:17:16.239Z,3.60
2018-05-13T07:19:49.770Z,3.62
2018-05-13T07:22:23.370Z,3.20
2018-05-13T07:24:56.932Z,3.70
2018-05-13T07:27:30.482Z,3.80
2018-05-13T07:30:04.769Z,3.15
2018-05-13T07:32:39.274Z,3.65
2018-05-13T07:35:12.871Z,3.20
2018-05-13T07:37:46.957Z,4.00
2018-05-13T07:40:20.503Z,3.62
2018-05-13T07:42:54.036Z,3.40
2018-05-13T07:45:27.634Z,3.67
2018-05-13T07:48:01.886Z,4.25
2018-05-13T07:50:35.509Z,6.30
2018-05-13T07:53:09.051Z,4.28
2018-05-13T07:55:42.623Z,3.58
2018-05-13T07:58:16.934Z,3.28
2018-05-13T08:00:51.253Z,4.22
2018-05-13T08:03:24.855Z,3.65
2018-05-13T08:05:58.379Z,4.00
2018-05-13T08:08:32.076Z,3.83
2018-05-13T08:11:05.660Z,3.90
2018-05-13T08:13:39.184Z,2.97
2018-05-13T08:16:13.482Z,3.55
2018-05-13T08:18:48.109Z,3.30
2018-05-13T08:21:21.729Z,5.65
2018-05-13T08:23:55.221Z,3.40
2018-05-13T08:26:28.778Z,3.50
2018-05-13T08:29:03.122Z,3.25
2018-05-13T08:31:37.459Z,3.60
2018-05-13T08:34:12.186Z,3.50
2018-05-13T08:36:45.865Z,3.12
2018-05-13T08:39:20.463Z,3.20
2018-05-13T08:41:54.303Z,3.60
2018-05-13T08:44:27.895Z,3.15
2018-05-13T08:47:02.254Z,3.40
2018-05-13T08:49:35.981Z,4.70
2018-05-13T08:52:09.565Z,4.55
2018-05-13T08:54:43.113Z,3.92
2018-05-13T08:57:16.674Z,3.25
2018-05-13T08:59:50.219Z,3.00
2018-05-13T09:02:23.887Z,3.22
2018-05-13T09:04:57.583Z,3.22
2018-05-13T09:07:32.068Z,3.80
2018-05-13T09:10:05.867Z,4.82
2018-05-13T09:12:39.420Z,4.07
2018-05-13T09:15:13.161Z,4.40
2018-05-13T09:17:47.468Z,3.90
2018-05-13T09:20:21.190Z,4.00
2018-05-13T09:22:55.504Z,3.92
2018-05-13T09:25:29.022Z,3.90
2018-05-13T09:28:02.586Z,4.30
2018-05-13T09:30:36.827Z,3.67
2018-05-13T09:33:10.644Z,3.65
2018-05-13T09:35:44.939Z,4.35
2018-05-13T09:38:18.599Z,4.85
2018-05-13T09:40:52.340Z,4.15
2018-05-13T09:43:26.881Z,4.00
2018-05-13T09:46:01.289Z,5.50
2018-05-13T09:48:35.012Z,4.85
2018-05-13T09:51:08.590Z,12.35
2018-05-13T09:53:42.914Z,6.20
2018-05-13T09:56:16.575Z,4.62
2018-05-13T09:58:50.199Z,4.40
2018-05-13T10:01:23.729Z,4.10
2018-05-13T10:03:57.309Z,4.25
2018-05-13T10:06:30.844Z,4.20
2018-05-13T10:09:05.245Z,4.35
2018-05-13T10:11:38.909Z,4.20
2018-05-13T10:14:12.647Z,3.80
2018-05-13T10:16:46.367Z,3.70
2018-05-13T10:19:19.853Z,3.72
2018-05-13T10:21:53.568Z,4.10
2018-05-13T10:24:27.107Z,4.20
2018-05-13T10:27:00.632Z,3.60
2018-05-13T10:29:35.718Z,3.80
2018-05-13T10:32:09.474Z,3.70
2018-05-13T10:34:43.081Z,3.42
2018-05-13T10:37:17.499Z,3.40
2018-05-13T10:39:51.910Z,3.08
2018-05-13T10:42:26.333Z,3.40
2018-05-13T10:45:00.044Z,3.60
2018-05-13T10:47:33.570Z,4.20
2018-05-13T10:50:07.120Z,5.68
2018-05-13T10:52:40.963Z,5.55
2018-05-13T10:55:14.480Z,3.53
2018-05-13T10:57:48.044Z,3.92
2018-05-13T11:00:21.756Z,3.85
2018-05-13T11:02:55.487Z,4.07
2018-05-13T11:05:29.755Z,4.00
2018-05-13T11:08:04.288Z,3.70
2018-05-13T11:10:38.011Z,3.95
2018-05-13T11:13:11.547Z,3.67
2018-05-13T11:15:45.063Z,3.40
2018-05-13T11:18:18.819Z,3.50
2018-05-13T11:20:52.383Z,3.12
2018-05-13T11:23:25.994Z,3.30
2018-05-13T11:25:59.659Z,3.30
2018-05-13T11:28:33.282Z,3.30
2018-05-13T11:31:06.906Z,3.70
2018-05-13T11:33:40.567Z,3.58
2018-05-13T11:36:14.871Z,3.15
2018-05-13T11:38:49.164Z,3.30
2018-05-13T11:41:22.933Z,3.75
2018-05-13T11:43:56.517Z,3.65
2018-05-13T11:46:30.055Z,5.50
2018-05-13T11:49:03.708Z,5.62
2018-05-13T11:51:38.161Z,4.68
2018-05-13T11:54:11.745Z,6.12
2018-05-13T11:56:45.381Z,3.65
2018-05-13T11:59:19.084Z,3.03
2018-05-13T12:01:52.585Z,3.35
2018-05-13T12:04:26.978Z,3.50
2018-05-13T12:07:01.292Z,3.97
2018-05-13T12:09:35.008Z,3.33
2018-05-13T12:12:08.528Z,3.45
2018-05-13T12:14:42.090Z,3.55
2018-05-13T12:17:15.642Z,4.22
2018-05-13T12:19:50.215Z,3.83
2018-05-13T12:22:24.535Z,3.28
2018-05-13T12:24:58.107Z,3.22
2018-05-13T12:27:31.787Z,3.10
2018-05-13T12:30:05.340Z,4.43
2018-05-13T12:32:39.037Z,4.50
2018-05-13T12:35:12.579Z,3.65
2018-05-13T12:37:46.214Z,3.85
2018-05-13T12:40:20.408Z,4.15
2018-05-13T12:42:54.071Z,4.12
2018-05-13T12:45:27.602Z,3.72
2018-05-13T12:48:01.179Z,4.45
2018-05-13T12:50:34.700Z,4.70
2018-05-13T12:53:08.270Z,5.47
2018-05-13T12:55:41.853Z,4.70
2018-05-13T12:58:15.462Z,4.95
2018-05-13T13:00:49.797Z,5.07
2018-05-13T13:03:23.356Z,4.35
2018-05-13T13:05:56.975Z,4.53
2018-05-13T13:08:30.748Z,4.25
2018-05-13T13:11:04.488Z,5.03
2018-05-13T13:13:38.277Z,4.22
2018-05-13T13:16:12.064Z,4.72
2018-05-13T13:18:46.469Z,4.68
2018-05-13T13:21:20.143Z,4.60
2018-05-13T13:23:53.763Z,4.30
2018-05-13T13:26:27.401Z,4.60
2018-05-13T13:29:02.022Z,4.30
2018-05-13T13:31:37.268Z,4.43
2018-05-13T13:34:11.106Z,4.85
2018-05-13T13:36:44.937Z,4.68
2018-05-13T13:39:18.778Z,5.60
2018-05-13T13:41:52.432Z,5.30
2018-05-13T13:44:26.288Z,4.95
2018-05-13T13:46:59.970Z,5.40
2018-05-13T13:49:33.774Z,6.00
2018-05-13T13:52:07.585Z,7.37
2018-05-13T13:54:41.377Z,5.35
2018-05-13T13:57:15.142Z,4.95
2018-05-13T13:59:48.924Z,3.72
2018-05-13T14:02:22.767Z,4.07
2018-05-13T14:04:56.316Z,4.05
2018-05-13T14:07:29.874Z,3.75
2018-05-13T14:10:03.424Z,4.00
2018-05-13T14:12:37.050Z,4.25
2018-05-13T14:15:10.793Z,4.47
2018-05-13T14:17:44.339Z,4.50
2018-05-13T14:20:17.896Z,5.57
2018-05-13T14:22:51.588Z,5.85
2018-05-13T14:25:25.138Z,4.50
2018-05-13T14:27:58.653Z,5.20
2018-05-13T14:30:32.955Z,5.18
2018-05-13T14:33:06.495Z,4.70
2018-05-13T14:35:40.048Z,5.20
2018-05-13T14:38:13.567Z,4.70
2018-05-13T14:40:47.296Z,4.95
2018-05-13T14:43:20.862Z,4.50
2018-05-13T14:45:54.439Z,5.12
2018-05-13T14:48:28.079Z,4.40
2018-05-13T14:51:02.417Z,4.60
2018-05-13T14:53:35.956Z,6.10
2018-05-13T14:56:09.595Z,9.73
2018-05-13T14:58:43.911Z,6.47
2018-05-13T15:01:17.479Z,4.80
2018-05-13T15:03:51.004Z,4.62
2018-05-13T15:06:24.576Z,4.85
2018-05-13T15:08:58.964Z,5.05
2018-05-13T15:11:33.345Z,4.53
2018-05-13T15:14:07.029Z,4.80
2018-05-13T15:16:41.662Z,4.82
2018-05-13T15:19:14.989Z,4.70
2018-05-13T15:21:48.800Z,4.70
2018-05-13T15:24:22.516Z,4.20
2018-05-13T15:26:56.153Z,4.25
2018-05-13T15:29:29.661Z,4.82
2018-05-13T15:32:03.202Z,5.32
2018-05-13T15:34:37.479Z,5.18
2018-05-13T15:37:11.099Z,5.30
2018-05-13T15:39:44.716Z,5.62
2018-05-13T15:42:18.676Z,5.60
2018-05-13T15:44:53.024Z,6.57
2018-05-13T15:47:26.793Z,4.93
2018-05-13T15:50:01.247Z,5.25
2018-05-13T15:52:34.762Z,13.75
2018-05-13T15:55:08.442Z,7.05
2018-05-13T15:57:41.887Z,6.80
2018-05-13T16:00:15.579Z,5.07
2018-05-13T16:02:49.155Z,5.28
2018-05-13T16:05:23.582Z,4.90
2018-05-13T16:07:57.272Z,4.97
2018-05-13T16:10:30.781Z,5.18
2018-05-13T16:13:04.391Z,6.37
2018-05-13T16:15:38.706Z,5.68
2018-05-13T16:18:13.114Z,6.22
2018-05-13T16:20:47.432Z,5.70
2018-05-13T16:23:21.006Z,6.12
2018-05-13T16:25:54.768Z,5.90
2018-05-13T16:28:28.310Z,6.20
2018-05-13T16:31:02.051Z,5.90
2018-05-13T16:33:35.638Z,5.30
2018-05-13T16:36:09.191Z,5.20
2018-05-13T16:38:42.846Z,5.70
2018-05-13T16:41:16.383Z,5.82
2018-05-13T16:43:50.048Z,5.55
2018-05-13T16:46:23.708Z,5.55
2018-05-13T16:48:57.200Z,4.85
2018-05-13T16:51:31.852Z,6.93
2018-05-13T16:54:06.283Z,11.02
2018-05-13T16:56:39.890Z,6.60
2018-05-13T16:59:13.583Z,5.12
2018-05-13T17:01:47.170Z,5.50
2018-05-13T17:04:20.712Z,4.40
2018-05-13T17:06:54.386Z,4.80
2018-05-13T17:09:28.653Z,4.85
2018-05-13T17:12:02.405Z,6.10
2018-05-13T17:14:35.945Z,5.70
2018-05-13T17:17:09.558Z,5.10
2018-05-13T17:19:43.104Z,6.55
2018-05-13T17:22:16.684Z,5.62
2018-05-13T17:24:50.228Z,5.30
2018-05-13T17:27:23.800Z,5.47
2018-05-13T17:29:57.393Z,5.95
2018-05-13T17:32:30.902Z,6.18
2018-05-13T17:35:04.470Z,5.12
2018-05-13T17:37:38.185Z,6.10
2018-05-13T17:40:11.689Z,5.55
2018-05-13T17:42:45.210Z,5.15
2018-05-13T17:45:18.779Z,6.70
2018-05-13T17:47:52.584Z,6.22
2018-05-13T17:50:26.948Z,5.70
2018-05-13T17:53:00.703Z,9.35
2018-05-13T17:55:34.262Z,10.27
2018-05-13T17:58:08.554Z,7.55
2018-05-13T18:00:42.182Z,8.00
2018-05-13T18:03:15.850Z,7.00
2018-05-13T18:05:49.217Z,6.93
2018-05-13T18:08:22.760Z,7.40
2018-05-13T18:10:57.074Z,7.03
2018-05-13T18:13:30.587Z,6.45
2018-05-13T18:16:04.156Z,5.70
2018-05-13T18:18:37.760Z,6.22
2018-05-13T18:21:12.086Z,6.75
2018-05-13T18:23:46.720Z,6.45
2018-05-13T18:26:20.380Z,5.82
2018-05-13T18:28:54.000Z,6.53
2018-05-13T18:31:27.624Z,6.72
2018-05-13T18:34:01.216Z,6.57
2018-05-13T18:36:35.556Z,6.35
2018-05-13T18:39:10.145Z,7.25
2018-05-13T18:41:44.368Z,6.87
2018-05-13T18:44:18.885Z,6.75
2018-05-13T18:46:52.453Z,6.78
2018-05-13T18:49:26.090Z,8.25
2018-05-13T18:51:59.665Z,7.57
2018-05-13T18:54:33.379Z,9.18
2018-05-13T18:57:07.017Z,8.10
2018-05-13T18:59:40.530Z,9.65
2018-05-13T19:02:14.193Z,10.40
2018-05-13T19:04:48.635Z,9.63
2018-05-13T19:07:22.192Z,9.90
2018-05-13T19:09:55.803Z,10.43
2018-05-13T19:12:29.572Z,11.07
2018-05-13T19:15:03.281Z,11.63
2018-05-13T19:17:36.820Z,10.05
2018-05-13T19:20:10.404Z,10.75
2018-05-13T19:22:43.947Z,11.88
2018-05-13T19:25:17.512Z,11.93
2018-05-13T19:27:51.035Z,10.68
2018-05-13T19:30:25.362Z,10.75
2018-05-13T19:32:59.067Z,8.60
2018-05-13T19:35:32.647Z,10.02
2018-05-13T19:38:06.324Z,9.82
2018-05-13T19:40:39.866Z,8.25
2018-05-13T19:43:13.443Z,9.10
2018-05-13T19:45:47.036Z,8.80
2018-05-13T19:48:20.663Z,5.80
2018-05-13T19:50:54.255Z,5.82
2018-05-13T19:53:27.854Z,5.32
2018-05-13T19:56:01.378Z,7.07
2018-05-13T19:58:34.929Z,6.05
2018-05-13T20:01:08.504Z,5.18
2018-05-13T20:03:42.211Z,4.97
2018-05-13T20:06:15.639Z,4.80
2018-05-13T20:08:49.276Z,4.40
2018-05-13T20:11:22.840Z,4.87
2018-05-13T20:13:56.460Z,4.80
2018-05-13T20:16:30.028Z,4.60
2018-05-13T20:19:03.655Z,4.82
2018-05-13T20:21:38.055Z,4.45
2018-05-13T20:24:11.671Z,4.40
2018-05-13T20:26:45.145Z,4.82
2018-05-13T20:29:18.695Z,4.60
2018-05-13T20:31:52.271Z,4.93
2018-05-13T20:34:25.852Z,5.65
2018-05-13T20:36:59.402Z,4.72
2018-05-13T20:39:33.086Z,4.90
2018-05-13T20:42:06.685Z,5.20
2018-05-13T20:44:40.472Z,5.40
2018-05-13T20:47:14.118Z,5.47
2018-05-13T20:49:47.803Z,5.95
2018-05-13T20:52:21.380Z,5.87
2018-05-13T20:54:54.943Z,5.57
2018-05-13T20:57:28.612Z,5.45
2018-05-13T21:00:02.420Z,6.47
2018-05-13T21:02:36.012Z,19.42
2018-05-13T21:05:10.395Z,6.90
2018-05-13T21:07:44.004Z,6.80
2018-05-13T21:10:17.502Z,5.25
2018-05-13T21:12:51.039Z,4.22
2018-05-13T21:15:25.317Z,4.93
2018-05-13T21:17:59.147Z,5.28
2018-05-13T21:20:32.646Z,6.03
2018-05-13T21:23:06.248Z,4.80
2018-05-13T21:25:40.711Z,4.90
2018-05-13T21:28:14.451Z,4.60
2018-05-13T21:30:48.780Z,4.50
2018-05-13T21:33:22.527Z,5.15
2018-05-13T21:35:56.231Z,5.10
2018-05-13T21:38:30.691Z,5.25
2018-05-13T21:41:04.555Z,5.03
2018-05-13T21:43:38.095Z,4.60
2018-05-13T21:46:12.530Z,4.70
2018-05-13T21:48:46.223Z,5.65
2018-05-13T21:51:19.812Z,5.47
2018-05-13T21:53:53.343Z,4.97
2018-05-13T21:56:26.918Z,4.22
2018-05-13T21:59:00.668Z,5.53
2018-05-13T22:01:34.242Z,5.60
2018-05-13T22:04:08.539Z,6.10
2018-05-13T22:06:43.167Z,6.85
2018-05-13T22:09:16.925Z,6.47
2018-05-13T22:11:50.501Z,5.50
2018-05-13T22:14:24.069Z,4.95
2018-05-13T22:16:57.710Z,4.70
2018-05-13T22:19:31.279Z,4.57
2018-05-13T22:22:04.868Z,4.37
2018-05-13T22:24:38.437Z,4.62
2018-05-13T22:27:11.951Z,4.60
2018-05-13T22:29:46.295Z,5.00
2018-05-13T22:32:19.996Z,5.07
2018-05-13T22:34:53.559Z,4.62
2018-05-13T22:37:27.830Z,4.93
2018-05-13T22:40:02.244Z,5.32
2018-05-13T22:42:36.147Z,5.35
2018-05-13T22:45:09.767Z,5.10
2018-05-13T22:47:43.307Z,4.65
2018-05-13T22:50:16.873Z,4.40
2018-05-13T22:52:50.415Z,4.93
2018-05-13T22:55:23.953Z,5.57
2018-05-13T22:57:57.459Z,6.78
2018-05-13T23:00:31.034Z,7.85
2018-05-13T23:03:04.622Z,8.40
2018-05-13T23:05:38.264Z,7.40
2018-05-13T23:08:11.642Z,7.80
2018-05-13T23:10:45.315Z,7.00
2018-05-13T23:13:19.660Z,6.80
2018-05-13T23:15:53.387Z,6.65
2018-05-13T23:18:27.847Z,5.75
2018-05-13T23:21:01.427Z,6.47
2018-05-13T23:23:35.109Z,6.30
2018-05-13T23:26:09.464Z,5.87
2018-05-13T23:28:43.254Z,6.87
2018-05-13T23:31:16.766Z,6.72
2018-05-13T23:33:51.219Z,6.90
2018-05-13T23:36:25.066Z,6.32
2018-05-13T23:38:58.627Z,6.78
2018-05-13T23:41:32.220Z,6.60
2018-05-13T23:44:05.826Z,6.68
2018-05-13T23:46:39.418Z,6.45
2018-05-13T23:49:12.957Z,6.03
2018-05-13T23:51:46.532Z,5.70
2018-05-13T23:54:20.128Z,6.22
2018-05-13T23:56:54.448Z,6.07
2018-05-13T23:59:28.213Z,7.03
